Terminal Aerodrome Forecast
Issued by NWS Sioux Falls, SD

Home | Current Version | Previous Version | Graphics & Text | Print | Product List | Glossary On
Versions: 1 2 3 4 5 6 7 8 9 10 11 12 13 14 15 16 17 18
000
FTUS43 KFSD 250206 AAA
TAFHON
TAF AMD
KHON 250206Z 2502/2524 11014KT P6SM VCTS SCT035CB SCT200
      TEMPO 2502/2505 11020G30KT -TSRA BKN035CB
     FM250500 08009KT P6SM BKN025
     FM250800 06011KT P6SM OVC018
     FM251600 07011KT P6SM OVC025
     FM251900 07011KT P6SM BKN035=

USA.gov is the U.S. government's official web portal to all federal, state and local government web resources and services.